createdAt,value
2018-10-01T00:01:52.956Z,99698.92
2018-10-01T00:06:56.617Z,99677.97
2018-10-01T00:12:00.627Z,99688.84
2018-10-01T00:17:04.182Z,99690.69
2018-10-01T00:22:13.071Z,99678.55
2018-10-01T00:27:16.707Z,99689.70
2018-10-01T00:32:20.173Z,99688.34
2018-10-01T00:37:23.796Z,99679.75
2018-10-01T00:42:27.309Z,99678.80
2018-10-01T00:47:30.901Z,99676.09
2018-10-01T00:52:34.503Z,99674.50
2018-10-01T00:57:37.942Z,99670.31
2018-10-01T01:02:41.397Z,99673.43
2018-10-01T01:07:44.877Z,99674.53
2018-10-01T01:12:48.362Z,99679.20
2018-10-01T01:17:51.842Z,99678.98
2018-10-01T01:22:55.322Z,99682.70
2018-10-01T01:27:58.841Z,99679.56
2018-10-01T01:33:02.352Z,99676.41
2018-10-01T01:38:05.918Z,99662.86
2018-10-01T01:43:09.409Z,99670.31
2018-10-01T01:48:12.977Z,99665.30
2018-10-01T01:53:16.549Z,99676.20
2018-10-01T01:58:20.015Z,99666.91
2018-10-01T02:03:23.537Z,99669.34
2018-10-01T02:08:27.269Z,99659.44
2018-10-01T02:13:30.759Z,99656.73
2018-10-01T02:18:34.306Z,99645.48
2018-10-01T02:23:37.821Z,99649.91
2018-10-01T02:28:41.290Z,99644.26
2018-10-01T02:33:44.843Z,99639.59
2018-10-01T02:38:48.304Z,99638.52
2018-10-01T02:43:51.813Z,99636.44
2018-10-01T02:48:55.362Z,99632.63
2018-10-01T02:54:04.146Z,99622.98
2018-10-01T02:59:07.637Z,99621.23
2018-10-01T03:04:11.084Z,99614.73
2018-10-01T03:09:15.210Z,99615.82
2018-10-01T03:14:18.653Z,99614.60
2018-10-01T03:19:22.143Z,99619.75
2018-10-01T03:24:25.671Z,99614.11
2018-10-01T03:29:29.171Z,99607.15
2018-10-01T03:34:32.672Z,99612.17
2018-10-01T03:39:36.150Z,99613.73
2018-10-01T03:44:39.652Z,99613.02
2018-10-01T03:49:43.157Z,99624.27
2018-10-01T03:54:46.651Z,99626.69
2018-10-01T03:59:50.117Z,99625.22
2018-10-01T04:04:53.623Z,99631.44
2018-10-01T04:09:57.109Z,99635.73
2018-10-01T04:15:00.588Z,99641.73
2018-10-01T04:20:04.697Z,99637.44
2018-10-01T04:25:09.644Z,99640.61
2018-10-01T04:30:13.169Z,99649.30
2018-10-01T04:35:16.732Z,99662.97
2018-10-01T04:40:20.200Z,99663.09
2018-10-01T04:45:23.711Z,99665.06
2018-10-01T04:50:27.197Z,99665.16
2018-10-01T04:55:30.662Z,99662.23
2018-10-01T05:00:34.640Z,99663.30
2018-10-01T05:05:38.091Z,99667.46
2018-10-01T05:10:41.542Z,99673.45
2018-10-01T05:15:45.013Z,99677.12
2018-10-01T05:20:48.457Z,99683.58
2018-10-01T05:25:51.922Z,99695.31
2018-10-01T05:30:55.356Z,99694.58
2018-10-01T05:35:58.796Z,99700.05
2018-10-01T05:41:02.257Z,99689.05
2018-10-01T05:46:05.697Z,99692.72
2018-10-01T05:51:09.122Z,99704.42
2018-10-01T05:56:12.529Z,99705.03
2018-10-01T06:01:15.989Z,99712.13
2018-10-01T06:06:19.416Z,99712.73
2018-10-01T06:11:22.866Z,99718.61
2018-10-01T06:16:26.291Z,99721.88
2018-10-01T06:21:29.730Z,99725.31
2018-10-01T06:26:33.194Z,99745.16
2018-10-01T06:31:36.682Z,99733.39
2018-10-01T06:36:40.147Z,99739.53
2018-10-01T06:41:43.672Z,99749.24
2018-10-01T06:46:47.065Z,99765.05
2018-10-01T06:51:50.505Z,99767.18
2018-10-01T06:56:53.965Z,99763.75
2018-10-01T07:01:57.425Z,99766.17
2018-10-01T07:07:00.881Z,99773.17
2018-10-01T07:12:04.336Z,99778.73
2018-10-01T07:17:07.875Z,99781.48
2018-10-01T07:22:11.341Z,99784.76
2018-10-01T07:27:14.840Z,99787.73
2018-10-01T07:32:18.341Z,99792.92
2018-10-01T07:37:21.854Z,99797.13
2018-10-01T07:42:25.446Z,99796.21
2018-10-01T07:47:28.925Z,99802.28
2018-10-01T07:52:32.364Z,99807.92
2018-10-01T07:57:35.957Z,99818.84
2018-10-01T08:02:39.598Z,99823.78
2018-10-01T08:07:43.009Z,99824.33
2018-10-01T08:12:46.448Z,99827.11
2018-10-01T08:17:49.934Z,99831.88
2018-10-01T08:22:53.453Z,99827.38
2018-10-01T08:27:56.990Z,99824.30
2018-10-01T08:33:00.497Z,99834.02
2018-10-01T08:38:04.241Z,99833.54
2018-10-01T08:43:07.785Z,99843.00
2018-10-01T08:48:12.190Z,99848.92
2018-10-01T08:53:24.610Z,99851.56
2018-10-01T08:58:28.173Z,99851.34
2018-10-01T09:03:31.678Z,99852.88
2018-10-01T09:08:35.293Z,99855.36
2018-10-01T09:13:38.723Z,99859.94
2018-10-01T09:18:42.268Z,99857.41
2018-10-01T09:23:45.740Z,99852.33
2018-10-01T09:28:49.504Z,99844.42
2018-10-01T09:33:52.985Z,99849.97
2018-10-01T09:38:56.494Z,99840.87
2018-10-01T09:43:59.978Z,99845.89
2018-10-01T09:49:03.515Z,99845.25
2018-10-01T09:54:07.063Z,99842.86
2018-10-01T09:59:10.522Z,99848.48
2018-10-01T10:04:14.027Z,99843.86
2018-10-01T10:09:17.425Z,99843.66
2018-10-01T10:14:21.018Z,99850.83
2018-10-01T10:19:24.490Z,99860.11
2018-10-01T10:24:28.129Z,99864.47
2018-10-01T10:29:31.612Z,99860.82
2018-10-01T10:34:35.150Z,99865.06
2018-10-01T10:39:38.557Z,99862.83
2018-10-01T10:44:41.979Z,99856.13
2018-10-01T10:49:45.394Z,99858.81
2018-10-01T10:54:48.800Z,99853.28
2018-10-01T10:59:52.294Z,99852.80
2018-10-01T11:04:55.718Z,99853.53
2018-10-01T11:09:59.226Z,99874.89
2018-10-01T11:15:03.195Z,99876.77
2018-10-01T11:20:06.626Z,99877.09
2018-10-01T11:25:10.043Z,99882.04
2018-10-01T11:30:13.489Z,99884.91
2018-10-01T11:35:17.118Z,99877.11
2018-10-01T11:40:20.353Z,99881.13
2018-10-01T11:45:23.857Z,99889.08
2018-10-01T11:50:27.280Z,99889.97
2018-10-01T11:55:30.698Z,99899.36
2018-10-01T12:00:34.146Z,99889.08
2018-10-01T12:05:37.583Z,99894.93
2018-10-01T12:10:41.059Z,99896.68
2018-10-01T12:15:44.600Z,99887.73
2018-10-01T12:20:47.937Z,99885.83
2018-10-01T12:25:51.369Z,99881.57
2018-10-01T12:30:54.794Z,99884.17
2018-10-01T12:35:58.235Z,99884.55
2018-10-01T12:41:01.667Z,99879.17
2018-10-01T12:46:05.093Z,99879.66
2018-10-01T12:51:08.604Z,99889.91
2018-10-01T12:56:11.949Z,99888.57
2018-10-01T13:01:15.425Z,99899.20
2018-10-01T13:06:19.014Z,99901.52
2018-10-01T13:11:22.385Z,99907.14
2018-10-01T13:16:25.856Z,99901.03
2018-10-01T13:21:29.328Z,99913.59
2018-10-01T13:26:32.843Z,99912.52
2018-10-01T13:31:36.331Z,99915.60
2018-10-01T13:36:39.853Z,99918.92
2018-10-01T13:41:43.317Z,99919.78
2018-10-01T13:46:46.760Z,99919.14
2018-10-01T13:51:50.258Z,99924.11
2018-10-01T13:56:53.763Z,99919.52
2018-10-01T14:01:57.225Z,99913.17
2018-10-01T14:07:00.673Z,99925.70
2018-10-01T14:12:04.112Z,99913.18
2018-10-01T14:17:08.000Z,99909.98
2018-10-01T14:22:11.469Z,99911.09
2018-10-01T14:27:14.956Z,99911.11
2018-10-01T14:32:18.389Z,99913.08
2018-10-01T14:37:21.801Z,99917.69
2018-10-01T14:42:25.443Z,99922.88
2018-10-01T14:47:28.870Z,99926.84
2018-10-01T14:52:32.331Z,99924.10
2018-10-01T14:57:35.752Z,99926.34
2018-10-01T15:02:39.217Z,99920.77
2018-10-01T15:07:42.653Z,99916.40
2018-10-01T15:12:46.232Z,99914.11
2018-10-01T15:17:49.675Z,99914.64
2018-10-01T15:22:53.249Z,99920.42
2018-10-01T15:27:56.756Z,99921.22
2018-10-01T15:33:00.196Z,99924.46
2018-10-01T15:38:03.654Z,99932.17
2018-10-01T15:43:07.195Z,99938.69
2018-10-01T15:48:10.693Z,99936.52
2018-10-01T15:53:14.128Z,99947.03
2018-10-01T15:58:17.604Z,99952.94
2018-10-01T16:03:21.143Z,99954.59
2018-10-01T16:08:24.606Z,99950.42
2018-10-01T16:13:28.163Z,99954.25
2018-10-01T16:18:31.592Z,99962.83
2018-10-01T16:23:35.059Z,99965.45
2018-10-01T16:28:38.532Z,99969.38
2018-10-01T16:33:42.029Z,99978.07
2018-10-01T16:38:45.616Z,99981.84
2018-10-01T16:43:49.059Z,99994.09
2018-10-01T16:48:53.220Z,100001.68
2018-10-01T16:53:56.792Z,100006.11
2018-10-01T16:59:00.317Z,100027.30
2018-10-01T17:04:03.867Z,100038.78
2018-10-01T17:09:08.683Z,100051.05
2018-10-01T17:14:12.167Z,100061.47
2018-10-01T17:19:15.641Z,100068.56
2018-10-01T17:24:19.290Z,100077.63
2018-10-01T17:29:22.752Z,100087.80
2018-10-01T17:34:26.425Z,100099.71
2018-10-01T17:39:29.869Z,100093.34
2018-10-01T17:44:33.317Z,100098.61
2018-10-01T17:49:36.883Z,100100.23
2018-10-01T17:54:40.338Z,100100.72
2018-10-01T17:59:44.104Z,100109.17
2018-10-01T18:04:47.705Z,100106.17
2018-10-01T18:09:51.296Z,100121.70
2018-10-01T18:14:54.801Z,100120.11
2018-10-01T18:19:58.415Z,100119.73
2018-10-01T18:25:01.978Z,100137.66
2018-10-01T18:30:06.838Z,100139.38
2018-10-01T18:35:10.272Z,100145.69
2018-10-01T18:40:14.874Z,100151.29
2018-10-01T18:45:18.561Z,100152.08
2018-10-01T18:50:22.093Z,100163.88
2018-10-01T18:55:25.628Z,100165.95
2018-10-01T19:00:29.050Z,100173.43
2018-10-01T19:05:32.496Z,100167.39
2018-10-01T19:10:36.043Z,100178.55
2018-10-01T19:15:39.505Z,100177.69
2018-10-01T19:20:42.988Z,100190.67
2018-10-01T19:25:46.433Z,100194.26
2018-10-01T19:30:49.878Z,100193.37
2018-10-01T19:35:53.528Z,100204.64
2018-10-01T19:40:57.115Z,100207.73
2018-10-01T19:46:00.564Z,100220.32
2018-10-01T19:51:04.020Z,100228.41
2018-10-01T19:56:07.709Z,100222.56
2018-10-01T20:01:11.149Z,100235.91
2018-10-01T20:06:14.574Z,100235.70
2018-10-01T20:11:18.054Z,100241.38
2018-10-01T20:16:21.453Z,100240.08
2018-10-01T20:21:25.198Z,100252.37
2018-10-01T20:26:28.711Z,100250.53
2018-10-01T20:31:32.087Z,100258.62
2018-10-01T20:36:35.575Z,100262.58
2018-10-01T20:41:39.044Z,100266.62
2018-10-01T20:46:42.591Z,100270.75
2018-10-01T20:51:45.997Z,100270.26
2018-10-01T20:56:49.417Z,100267.56
2018-10-01T21:01:52.882Z,100275.56
2018-10-01T21:06:56.310Z,100274.21
2018-10-01T21:11:59.768Z,100279.61
2018-10-01T21:17:03.212Z,100286.34
2018-10-01T21:22:06.766Z,100294.80
2018-10-01T21:27:10.202Z,100305.95
2018-10-01T21:32:13.645Z,100307.67
2018-10-01T21:37:17.060Z,100319.55
2018-10-01T21:42:20.595Z,100322.62
2018-10-01T21:47:24.177Z,100328.01
2018-10-01T21:52:28.091Z,100328.37
2018-10-01T21:57:31.554Z,100322.13
2018-10-01T22:02:35.060Z,100327.52
2018-10-01T22:07:38.544Z,100330.59
2018-10-01T22:12:42.022Z,100330.22
2018-10-01T22:17:45.569Z,100335.98
2018-10-01T22:22:49.025Z,100337.81
2018-10-01T22:27:52.495Z,100343.20
2018-10-01T22:32:55.933Z,100340.02
2018-10-01T22:37:59.421Z,100340.14
2018-10-01T22:43:02.906Z,100334.26
2018-10-01T22:48:06.516Z,100342.34
2018-10-01T22:53:09.994Z,100340.14
2018-10-01T22:58:13.494Z,100347.73
2018-10-01T23:03:16.965Z,100346.39
2018-10-01T23:08:20.412Z,100351.17
2018-10-01T23:13:23.889Z,100352.64
2018-10-01T23:18:27.341Z,100350.43
2018-10-01T23:23:30.904Z,100346.39
2018-10-01T23:28:34.382Z,100348.72
2018-10-01T23:33:37.867Z,100352.16
2018-10-01T23:38:41.358Z,100358.64
2018-10-01T23:43:44.805Z,100355.08
2018-10-01T23:48:48.288Z,100356.80
2018-10-01T23:53:51.745Z,100354.59
2018-10-01T23:58:55.220Z,100356.43
